Vidfoss — V2QK4 — position and weather

sailwx.info

Track history (hours):
 
Tides and Currents Weather Stations Pressure Air Temp Water Temp Dewpoint Dewpoint Depression Visibility Wind Speed Wind Dir Waves Ship Positions

Vidfoss

Last reported at 2014-Oct-22 20:33 UTC. Time now 2014-Oct-23 12:27 UTC.
Position N 58°01' E 005°38'.

Length 93 m; draft 5.7 m.

Type: Cargo ship. MMSI: 305846000.

Date/timePositionNaut miles runAvg speedWind from/ knotsBaromVisibWave heightAir tempDewpointWater temp
2014-Oct-22 20:33N 58°01' E 005°38'4912.2
2014-Oct-22 16:33N 58°49' E 005°27'1212.6
2014-Oct-22 15:33N 59°01' E 005°32'1111.4
2014-Oct-22 14:33N 59°11' E 005°20'  
2014-Oct-19 13:33N 59°25' E 005°15'1211.4
2014-Oct-19 12:32N 59°14' E 005°21'5 5.6
2014-Oct-19 11:33N 59°09' E 005°16'0 0.0
2014-Oct-19 10:31N 59°09' E 005°16'0 0.0
2014-Oct-19 09:33N 59°09' E 005°16'0 0.0
2014-Oct-19 08:32N 59°09' E 005°16'0 0.0
2014-Oct-19 07:31N 59°09' E 005°16'2 2.5
2014-Oct-19 06:33N 59°07' E 005°20'1211.9
2014-Oct-19 05:33N 58°55' E 005°21'2512.5
2014-Oct-19 03:33N 58°31' E 005°33'1212.3
2014-Oct-19 02:33N 58°24' E 005°52'4 4.2
2014-Oct-19 01:33N 58°27' E 005°59'0 0.0
2014-Oct-19 00:33N 58°27' E 005°59'0 0.0
2014-Oct-18 23:33N 58°27' E 005°59'0 0.4
2014-Oct-18 22:33N 58°26' E 005°59'1211.9
2014-Oct-18 21:33N 58°14' E 005°59'24413.5
2014-Oct-18 03:30N 54°13' E 004°57'1313.8
2014-Oct-18 02:33N 54°00' E 004°55'1413.5
2014-Oct-18 01:29N 53°46' E 004°52'1313.6
2014-Oct-18 00:32N 53°33' E 004°48'1212.3
2014-Oct-17 23:32N 53°21' E 004°46'1010.7
2014-Oct-17 22:33N 53°19' E 005°03'8 7.6
2014-Oct-17 21:33N 53°14' E 005°13'8 8.2
2014-Oct-17 20:33N 53°11' E 005°25'0 0.2
2014-Oct-17 19:31N 53°11' E 005°26'0 0.0
2014-Oct-17 18:32N 53°11' E 005°26'0 0.0
2014-Oct-17 17:32N 53°11' E 005°26'0 0.0
2014-Oct-17 16:33N 53°11' E 005°26'0 0.0
2014-Oct-17 15:31N 53°11' E 005°26'0 0.0
2014-Oct-17 14:31N 53°11' E 005°26'0 0.0
2014-Oct-17 13:32N 53°11' E 005°26'0 0.0
2014-Oct-17 12:33N 53°11' E 005°26'0 0.0
2014-Oct-17 11:33N 53°11' E 005°26'0 0.0
2014-Oct-17 10:31N 53°11' E 005°26'0 0.0
2014-Oct-17 09:32N 53°11' E 005°26'0 0.0
2014-Oct-17 08:32N 53°11' E 005°26'0 0.0
2014-Oct-17 07:33N 53°11' E 005°26'0 0.0
2014-Oct-17 06:31N 53°11' E 005°26'0 0.0
2014-Oct-17 05:31N 53°11' E 005°26'0 0.0
2014-Oct-17 04:32N 53°11' E 005°26'0 0.0
2014-Oct-17 03:33N 53°11' E 005°26'0 0.0
2014-Oct-17 02:33N 53°11' E 005°26'0 0.0
2014-Oct-17 01:31N 53°11' E 005°26'1 1.5
2014-Oct-17 00:33N 53°11' E 005°23'10 9.9
2014-Oct-16 23:33N 53°17' E 005°10'8 8.0
2014-Oct-16 22:34N 53°19' E 004°57'9 9.1
2014-Oct-16 21:33N 53°27' E 005°05'9 9.4
2014-Oct-16 20:33N 53°35' E 005°12'1211.9
2014-Oct-16 19:33N 53°39' E 005°31'1312.5
2014-Oct-16 18:32N 53°43' E 005°51'1110.7
2014-Oct-16 17:33N 53°40' E 006°09'1312.8
2014-Oct-16 16:32N 53°37' E 006°30'1211.9
2014-Oct-16 15:33N 53°31' E 006°47'4 4.3
2014-Oct-16 14:33N 53°27' E 006°49'0 0.0
2014-Oct-16 13:33N 53°27' E 006°49'0 0.0
2014-Oct-16 12:33N 53°27' E 006°49'0 0.0
2014-Oct-16 11:33N 53°27' E 006°49'0 0.0
2014-Oct-16 10:33N 53°27' E 006°49'0 0.0
2014-Oct-16 09:33N 53°27' E 006°49'8 7.4
2014-Oct-16 08:32N 53°33' E 006°42'1010.1
2014-Oct-16 07:33N 53°37' E 006°26'20 9.9
2014-Oct-16 05:31N 53°54' E 006°09'  
Track history (hours):
 
Tides and Currents Weather Stations Pressure Air Temp Water Temp Dewpoint Dewpoint Depression Visibility Wind Speed Wind Dir Waves Ship Positions

Vidfoss

Last reported at 2014-Oct-22 20:33 UTC. Time now 2014-Oct-23 12:27 UTC.
Position N 58°01' E 005°38'.

Length 93 m; draft 5.7 m.

Type: Cargo ship. MMSI: 305846000.

Date/timePositionNaut miles runAvg speedWind from/ knotsBaromVisibWave heightAir tempDewpointWater temp
2014-Oct-22 20:33N 58°01' E 005°38'4912.2
2014-Oct-22 16:33N 58°49' E 005°27'1212.6
2014-Oct-22 15:33N 59°01' E 005°32'1111.4
2014-Oct-22 14:33N 59°11' E 005°20'  
2014-Oct-19 13:33N 59°25' E 005°15'1211.4
2014-Oct-19 12:32N 59°14' E 005°21'5 5.6
2014-Oct-19 11:33N 59°09' E 005°16'0 0.0
2014-Oct-19 10:31N 59°09' E 005°16'0 0.0
2014-Oct-19 09:33N 59°09' E 005°16'0 0.0
2014-Oct-19 08:32N 59°09' E 005°16'0 0.0
2014-Oct-19 07:31N 59°09' E 005°16'2 2.5
2014-Oct-19 06:33N 59°07' E 005°20'1211.9
2014-Oct-19 05:33N 58°55' E 005°21'2512.5
2014-Oct-19 03:33N 58°31' E 005°33'1212.3
2014-Oct-19 02:33N 58°24' E 005°52'4 4.2
2014-Oct-19 01:33N 58°27' E 005°59'0 0.0
2014-Oct-19 00:33N 58°27' E 005°59'0 0.0
2014-Oct-18 23:33N 58°27' E 005°59'0 0.4
2014-Oct-18 22:33N 58°26' E 005°59'1211.9
2014-Oct-18 21:33N 58°14' E 005°59'24413.5
2014-Oct-18 03:30N 54°13' E 004°57'1313.8
2014-Oct-18 02:33N 54°00' E 004°55'1413.5
2014-Oct-18 01:29N 53°46' E 004°52'1313.6
2014-Oct-18 00:32N 53°33' E 004°48'1212.3
2014-Oct-17 23:32N 53°21' E 004°46'1010.7
2014-Oct-17 22:33N 53°19' E 005°03'8 7.6
2014-Oct-17 21:33N 53°14' E 005°13'8 8.2
2014-Oct-17 20:33N 53°11' E 005°25'0 0.2
2014-Oct-17 19:31N 53°11' E 005°26'0 0.0
2014-Oct-17 18:32N 53°11' E 005°26'0 0.0
2014-Oct-17 17:32N 53°11' E 005°26'0 0.0
2014-Oct-17 16:33N 53°11' E 005°26'0 0.0
2014-Oct-17 15:31N 53°11' E 005°26'0 0.0
2014-Oct-17 14:31N 53°11' E 005°26'0 0.0
2014-Oct-17 13:32N 53°11' E 005°26'0 0.0
2014-Oct-17 12:33N 53°11' E 005°26'0 0.0
2014-Oct-17 11:33N 53°11' E 005°26'0 0.0
2014-Oct-17 10:31N 53°11' E 005°26'0 0.0
2014-Oct-17 09:32N 53°11' E 005°26'0 0.0
2014-Oct-17 08:32N 53°11' E 005°26'0 0.0
2014-Oct-17 07:33N 53°11' E 005°26'0 0.0
2014-Oct-17 06:31N 53°11' E 005°26'0 0.0
2014-Oct-17 05:31N 53°11' E 005°26'0 0.0
2014-Oct-17 04:32N 53°11' E 005°26'0 0.0
2014-Oct-17 03:33N 53°11' E 005°26'0 0.0
2014-Oct-17 02:33N 53°11' E 005°26'0 0.0
2014-Oct-17 01:31N 53°11' E 005°26'1 1.5
2014-Oct-17 00:33N 53°11' E 005°23'10 9.9
2014-Oct-16 23:33N 53°17' E 005°10'8 8.0
2014-Oct-16 22:34N 53°19' E 004°57'9 9.1
2014-Oct-16 21:33N 53°27' E 005°05'9 9.4
2014-Oct-16 20:33N 53°35' E 005°12'1211.9
2014-Oct-16 19:33N 53°39' E 005°31'1312.5
2014-Oct-16 18:32N 53°43' E 005°51'1110.7
2014-Oct-16 17:33N 53°40' E 006°09'1312.8
2014-Oct-16 16:32N 53°37' E 006°30'1211.9
2014-Oct-16 15:33N 53°31' E 006°47'4 4.3
2014-Oct-16 14:33N 53°27' E 006°49'0 0.0
2014-Oct-16 13:33N 53°27' E 006°49'0 0.0
2014-Oct-16 12:33N 53°27' E 006°49'0 0.0
2014-Oct-16 11:33N 53°27' E 006°49'0 0.0
2014-Oct-16 10:33N 53°27' E 006°49'0 0.0
2014-Oct-16 09:33N 53°27' E 006°49'8 7.4
2014-Oct-16 08:32N 53°33' E 006°42'1010.1
2014-Oct-16 07:33N 53°37' E 006°26'20 9.9
2014-Oct-16 05:31N 53°54' E 006°09'  

Dump ship's entire track history